Time;durP1;ratioP1;P1;durP2;ratioP2;P2;SDS_P1;SDS_P2;PMS_P1;PMS_P2;Temp;Humidity;BMP_temperature;BMP_pressure;BME280_temperature;BME280_humidity;BME280_pressure;Samples;Min_cycle;Max_cycle;Signal;HPM_P1;HPM_P2
2022/01/06 00:02:15;;;;;;;37.35;5.43;;;;;;;0.90;100.00;101561.47;5086177;28;20417;-81
2022/01/06 00:04:42;;;;;;;30.08;4.57;;;;;;;0.90;100.00;101564.03;5089542;28;20036;-81
2022/01/06 00:07:07;;;;;;;31.35;5.30;;;;;;;0.88;100.00;101563.13;5075901;28;20134;-80
2022/01/06 00:09:32;;;;;;;29.20;5.22;;;;;;;0.81;100.00;101554.38;5089851;28;20071;-80
2022/01/06 00:11:58;;;;;;;45.70;5.45;;;;;;;0.81;100.00;101569.78;5077311;28;20097;-81
2022/01/06 00:14:51;;;;;;;32.20;5.15;;;;;;;0.72;100.00;101560.94;5077526;28;20388;-80
2022/01/06 00:17:39;;;;;;;37.47;5.70;;;;;;;0.70;100.00;101568.63;5075886;28;20058;-80
2022/01/06 00:23:20;;;;;;;34.13;5.40;;;;;;;0.70;100.00;101569.50;5072665;28;20154;-80
2022/01/06 00:25:46;;;;;;;30.52;5.70;;;;;;;0.67;100.00;101569.41;5079839;28;20020;-80
2022/01/06 00:28:12;;;;;;;38.58;6.28;;;;;;;0.65;100.00;101576.22;5073502;28;20503;-80
2022/01/06 00:30:37;;;;;;;36.75;6.10;;;;;;;0.60;100.00;101567.50;5084236;28;20039;-80
2022/01/06 00:33:02;;;;;;;31.48;5.90;;;;;;;0.59;100.00;101576.03;5091725;28;20097;-80
2022/01/06 00:35:27;;;;;;;34.40;6.65;;;;;;;0.59;100.00;101575.13;5088784;28;20023;-80
2022/01/06 00:37:53;;;;;;;32.13;5.97;;;;;;;0.58;100.00;101583.66;5073199;28;20373;-80
2022/01/06 00:40:18;;;;;;;36.38;6.70;;;;;;;0.50;100.00;101580.88;5074025;28;20040;-81
2022/01/06 00:42:43;;;;;;;32.55;6.20;;;;;;;0.51;100.00;101592.88;5076873;28;20032;-80
2022/01/06 00:45:09;;;;;;;44.05;6.10;;;;;;;0.46;100.00;101595.31;5083971;28;20035;-80
2022/01/06 00:47:34;;;;;;;32.42;6.70;;;;;;;0.43;100.00;101599.50;5073040;28;20028;-80
2022/01/06 00:50:00;;;;;;;30.52;5.95;;;;;;;0.36;100.00;101593.31;5072791;28;20033;-80
2022/01/06 00:52:25;;;;;;;30.88;5.97;;;;;;;0.39;100.00;101610.47;5073324;28;20082;-80
2022/01/06 00:54:50;;;;;;;35.63;5.75;;;;;;;0.37;100.00;101602.72;5074598;28;20112;-80
2022/01/06 00:57:15;;;;;;;41.35;6.85;;;;;;;0.37;100.00;101604.44;5081613;28;20510;-80
2022/01/06 00:59:41;;;;;;;37.00;6.97;;;;;;;0.30;100.00;101594.81;5087284;28;20380;-80
2022/01/06 01:02:06;;;;;;;29.45;5.65;;;;;;;0.39;100.00;101601.09;5082511;28;20069;-80
2022/01/06 01:04:31;;;;;;;41.33;7.18;;;;;;;0.36;100.00;101592.41;5078503;28;20020;-80
2022/01/06 01:06:57;;;;;;;28.83;6.18;;;;;;;0.33;100.00;101595.78;5082339;28;20032;-80
2022/01/06 01:09:22;;;;;;;26.80;6.45;;;;;;;0.28;100.00;101599.88;5087174;28;20031;-80
2022/01/06 01:11:47;;;;;;;26.02;5.68;;;;;;;0.26;100.00;101604.09;5082274;28;20036;-80
2022/01/06 01:14:22;;;;;;;25.95;5.43;;;;;;;0.19;100.00;101605.59;5084102;28;20364;-80
2022/01/06 01:16:55;;;;;;;32.60;5.50;;;;;;;0.16;100.00;101609.75;5078926;28;20032;-80
2022/01/06 01:19:21;;;;;;;36.67;5.72;;;;;;;0.11;100.00;101596.81;5074983;28;20090;-80
2022/01/06 01:21:49;;;;;;;35.53;6.07;;;;;;;-0.02;100.00;101589.56;5087501;28;20038;-80
2022/01/06 01:24:15;;;;;;;27.00;5.25;;;;;;;0.02;100.00;101595.63;5075908;28;20124;-80
2022/01/06 01:26:41;;;;;;;32.38;6.50;;;;;;;-0.05;100.00;101604.84;5079046;28;20028;-80
2022/01/06 01:29:14;;;;;;;29.13;5.57;;;;;;;-0.10;100.00;101601.25;5070887;28;20468;-80
2022/01/06 01:31:47;;;;;;;20.23;6.10;;;;;;;-0.13;100.00;101608.81;5084751;28;20032;-80
2022/01/06 01:34:13;;;;;;;26.27;5.35;;;;;;;-0.21;100.00;101608.59;5077360;28;20475;-80
2022/01/06 01:36:39;;;;;;;43.17;6.43;;;;;;;-0.27;100.00;101619.50;5071289;28;20039;-79
2022/01/06 01:39:06;;;;;;;33.90;5.93;;;;;;;-0.31;100.00;101609.97;5074978;28;20029;-80
2022/01/06 01:41:31;;;;;;;27.23;5.55;;;;;;;-0.37;100.00;101612.31;5079511;28;20028;-80
2022/01/06 01:43:57;;;;;;;30.98;6.28;;;;;;;-0.35;100.00;101620.09;5077935;28;20379;-80
2022/01/06 01:46:30;;;;;;;41.03;6.65;;;;;;;-0.31;100.00;101621.91;5079858;28;20031;-80
2022/01/06 01:51:34;;;;;;;37.58;6.70;;;;;;;-0.25;100.00;101629.81;5071233;28;20480;-80
2022/01/06 01:54:00;;;;;;;35.60;6.25;;;;;;;-0.22;100.00;101644.44;5080321;28;20093;-80
2022/01/06 01:56:26;;;;;;;36.08;7.43;;;;;;;-0.19;100.00;101650.53;5086391;28;20517;-80
2022/01/06 01:58:51;;;;;;;32.67;7.13;;;;;;;-0.20;100.00;101651.31;5090083;28;20044;-80
2022/01/06 02:01:16;;;;;;;37.88;6.75;;;;;;;-0.18;100.00;101661.63;5076817;28;20027;-80
2022/01/06 02:03:41;;;;;;;31.48;6.43;;;;;;;-0.18;100.00;101648.81;5083390;28;20033;-80
2022/01/06 02:06:07;;;;;;;33.53;7.10;;;;;;;-0.19;100.00;101659.91;5076237;28;20024;-80
2022/01/06 02:08:32;;;;;;;30.70;6.57;;;;;;;-0.21;100.00;101661.53;5086736;28;20032;-80
2022/01/06 02:10:58;;;;;;;36.03;6.40;;;;;;;-0.20;100.00;101666.69;5086749;28;20078;-80
2022/01/06 02:13:28;;;;;;;34.80;6.00;;;;;;;-0.28;100.00;101653.63;5075748;28;20067;-80
2022/01/06 02:15:53;;;;;;;33.50;7.15;;;;;;;-0.29;100.00;101659.59;5075193;28;20115;-80
2022/01/06 02:18:19;;;;;;;35.78;7.13;;;;;;;-0.28;100.00;101670.72;5073900;28;20502;-80
2022/01/06 02:20:44;;;;;;;44.13;7.45;;;;;;;-0.35;100.00;101666.22;5075678;28;20043;-80
2022/01/06 02:23:09;;;;;;;34.17;6.90;;;;;;;-0.42;100.00;101661.69;5085025;28;20028;-80
2022/01/06 02:25:34;;;;;;;27.33;5.43;;;;;;;-0.49;100.00;101668.28;5082673;28;20024;-81
2022/01/06 02:28:03;;;;;;;38.03;6.78;;;;;;;-0.53;100.00;101668.97;5077081;28;20168;-81
2022/01/06 02:30:32;;;;;;;31.35;6.20;;;;;;;-0.58;100.00;101670.53;5078535;28;20048;-80
2022/01/06 02:33:00;;;;;;;33.47;5.90;;;;;;;-0.61;100.00;101675.53;5093909;28;20016;-80
2022/01/06 02:35:26;;;;;;;29.75;6.60;;;;;;;-0.62;100.00;101677.25;5077614;28;20079;-80
2022/01/06 02:37:51;;;;;;;37.20;6.55;;;;;;;-0.64;100.00;101678.00;5078103;28;20136;-80
2022/01/06 02:40:19;;;;;;;22.92;6.22;;;;;;;-0.66;100.00;101674.50;5075838;28;20031;-80
2022/01/06 02:42:51;;;;;;;33.55;6.65;;;;;;;-0.69;100.00;101677.81;5075752;28;20044;-80
2022/01/06 02:45:18;;;;;;;37.78;6.55;;;;;;;-0.71;100.00;101672.66;5089563;28;20535;-80
2022/01/06 02:47:46;;;;;;;30.65;7.32;;;;;;;-0.71;100.00;101667.53;5093724;28;20080;-81
2022/01/06 02:50:13;;;;;;;35.00;6.15;;;;;;;-0.65;100.00;101666.00;5088039;28;20036;-80
2022/01/06 02:52:38;;;;;;;27.58;5.85;;;;;;;-0.66;100.00;101667.69;5075346;28;20021;-80
2022/01/06 02:55:09;;;;;;;33.35;6.80;;;;;;;-0.64;100.00;101672.88;5072904;28;20589;-80
2022/01/06 02:57:34;;;;;;;40.70;6.30;;;;;;;-0.67;100.00;101667.63;5073805;28;20167;-80
2022/01/06 03:00:00;;;;;;;33.75;6.15;;;;;;;-0.65;100.00;101666.00;5074131;28;20096;-80
2022/01/06 03:02:26;;;;;;;38.58;6.90;;;;;;;-0.65;100.00;101671.13;5092096;28;20059;-80
2022/01/06 03:04:51;;;;;;;35.88;6.70;;;;;;;-0.64;100.00;101673.75;5081666;28;20028;-80
2022/01/06 03:07:17;;;;;;;33.65;6.13;;;;;;;-0.66;100.00;101674.50;5074095;28;20036;-80
2022/01/06 03:09:43;;;;;;;37.97;7.00;;;;;;;-0.70;100.00;101670.94;5086850;28;20028;-80
2022/01/06 03:12:28;;;;;;;33.95;5.10;;;;;;;-0.69;100.00;101676.94;5093141;28;20032;-80
2022/01/06 03:14:53;;;;;;;32.88;6.13;;;;;;;-0.67;100.00;101675.31;5081263;28;20055;-80
2022/01/06 03:17:18;;;;;;;29.02;6.13;;;;;;;-0.66;100.00;101682.19;5089332;28;20408;-80
2022/01/06 03:19:44;;;;;;;28.40;6.05;;;;;;;-0.72;100.00;101682.81;5074692;28;20028;-81
2022/01/06 03:22:09;;;;;;;27.35;5.75;;;;;;;-0.75;100.00;101696.41;5083920;28;20046;-80
2022/01/06 03:24:34;;;;;;;43.53;6.07;;;;;;;-0.77;100.00;101694.59;5089144;28;20047;-80
2022/01/06 03:27:00;;;;;;;32.58;5.72;;;;;;;-0.79;100.00;101691.09;5093733;28;20080;-80
2022/01/06 03:29:25;;;;;;;27.70;6.13;;;;;;;-0.87;100.00;101680.59;5092322;28;20051;-80
2022/01/06 03:31:51;;;;;;;38.58;6.15;;;;;;;-0.83;100.00;101702.94;5093419;28;20032;-80
2022/01/06 03:34:17;;;;;;;36.05;5.35;;;;;;;-0.81;100.00;101705.56;5080151;28;20092;-81
2022/01/06 03:36:42;;;;;;;29.25;6.05;;;;;;;-0.87;100.00;101703.63;5087165;28;20032;-81
2022/01/06 03:39:07;;;;;;;32.67;6.00;;;;;;;-0.86;100.00;101707.94;5091084;28;20517;-80
2022/01/06 03:41:33;;;;;;;34.50;6.00;;;;;;;-0.86;100.00;101705.38;5090952;28;20487;-80
2022/01/06 03:43:59;;;;;;;27.42;5.43;;;;;;;-0.78;100.00;101715.91;5076045;28;20020;-80
2022/01/06 03:46:24;;;;;;;37.42;6.40;;;;;;;-0.69;100.00;101710.22;5091191;28;20058;-80
2022/01/06 03:48:50;;;;;;;36.50;5.72;;;;;;;-0.65;100.00;101712.13;5091950;28;20483;-80
2022/01/06 03:51:16;;;;;;;44.65;7.00;;;;;;;-0.71;100.00;101708.50;5087444;28;20024;-80
2022/01/06 03:53:42;;;;;;;32.05;5.40;;;;;;;-0.68;100.00;101723.09;5078182;28;20036;-81
2022/01/06 03:56:07;;;;;;;30.00;6.05;;;;;;;-0.71;100.00;101721.31;5091412;28;20468;-80
2022/01/06 03:58:32;;;;;;;35.75;6.20;;;;;;;-0.74;100.00;101723.75;5092154;28;20067;-81
2022/01/06 04:00:57;;;;;;;30.17;5.13;;;;;;;-0.80;100.00;101720.97;5087484;28;20060;-80
2022/01/06 04:03:23;;;;;;;37.20;6.18;;;;;;;-0.71;100.00;101720.44;5072497;28;20028;-80
2022/01/06 04:05:48;;;;;;;46.30;5.65;;;;;;;-0.65;100.00;101709.56;5088829;28;20024;-80
2022/01/06 04:08:13;;;;;;;32.90;5.75;;;;;;;-0.61;100.00;101719.94;5085174;28;20736;-80
2022/01/06 04:10:39;;;;;;;37.30;6.05;;;;;;;-0.63;100.00;101711.31;5091404;28;20028;-80
2022/01/06 04:13:04;;;;;;;29.90;4.82;;;;;;;-0.67;100.00;101708.63;5085231;28;20490;-80
2022/01/06 04:15:29;;;;;;;42.60;5.50;;;;;;;-0.72;100.00;101700.75;5073186;28;20024;-81
2022/01/06 04:17:55;;;;;;;34.75;5.50;;;;;;;-0.62;100.00;101717.31;5071931;28;20383;-80
2022/01/06 04:20:20;;;;;;;40.53;6.07;;;;;;;-0.59;100.00;101720.00;5073556;28;20383;-80
2022/01/06 04:22:45;;;;;;;30.13;5.72;;;;;;;-0.64;100.00;101714.72;5073764;28;20395;-80
2022/01/06 04:25:11;;;;;;;30.90;6.30;;;;;;;-0.62;100.00;101728.47;5087544;28;20024;-80
2022/01/06 04:27:37;;;;;;;45.28;6.50;;;;;;;-0.64;100.00;101739.47;5083394;28;20510;-80
2022/01/06 04:30:05;;;;;;;39.22;6.43;;;;;;;-0.61;100.00;101743.00;5081187;28;20032;-80
2022/01/06 04:32:31;;;;;;;29.73;5.25;;;;;;;-0.63;100.00;101744.63;5090882;28;20105;-80
2022/01/06 04:34:58;;;;;;;44.78;7.03;;;;;;;-0.58;100.00;101744.81;5090637;28;20031;-80
2022/01/06 04:37:24;;;;;;;41.92;6.00;;;;;;;-0.62;100.00;101735.25;5081322;28;20487;-80
2022/01/06 04:39:50;;;;;;;43.92;6.60;;;;;;;-0.64;100.00;101735.19;5091053;28;20065;-80
2022/01/06 04:42:15;;;;;;;29.10;4.68;;;;;;;-0.72;100.00;101740.06;5090013;28;20024;-80
2022/01/06 04:44:40;;;;;;;30.27;5.63;;;;;;;-0.75;100.00;101741.63;5087751;28;20036;-80
2022/01/06 04:47:06;;;;;;;37.78;5.60;;;;;;;-0.85;100.00;101735.28;5091486;28;20032;-80
2022/01/06 04:49:31;;;;;;;31.05;5.65;;;;;;;-0.83;100.00;101749.00;5091706;28;20020;-80
2022/01/06 04:51:56;;;;;;;35.85;6.22;;;;;;;-0.82;100.00;101752.44;5088813;28;20024;-80
2022/01/06 04:54:21;;;;;;;40.83;5.32;;;;;;;-0.86;100.00;101746.34;5078767;28;20059;-79
2022/01/06 04:56:47;;;;;;;22.80;6.47;;;;;;;-0.92;100.00;101752.91;5076039;28;20062;-80
2022/01/06 04:59:12;;;;;;;38.00;6.53;;;;;;;-0.98;100.00;101756.13;5092097;28;20020;-80
2022/01/06 05:01:38;;;;;;;34.50;5.20;;;;;;;-1.04;100.00;101758.44;5090430;28;20059;-80
2022/01/06 05:04:04;;;;;;;30.38;6.15;;;;;;;-1.14;100.00;101756.34;5074683;28;20036;-80
2022/01/06 05:06:29;;;;;;;22.75;5.55;;;;;;;-1.19;100.00;101762.16;5075078;28;20039;-80
2022/01/06 05:08:57;;;;;;;39.55;6.03;;;;;;;-1.24;100.00;101766.22;5079743;28;20067;-80
2022/01/06 05:11:23;;;;;;;26.17;6.15;;;;;;;-1.27;100.00;101771.22;5086352;28;20056;-80
2022/01/06 05:13:49;;;;;;;31.88;6.60;;;;;;;-1.32;100.00;101776.97;5090318;28;20518;-80
2022/01/06 05:16:14;;;;;;;31.13;6.22;;;;;;;-1.35;100.00;101775.16;5091080;28;20039;-80
2022/01/06 05:18:40;;;;;;;35.92;6.43;;;;;;;-1.40;100.00;101774.09;5091738;28;20093;-80
2022/01/06 05:21:06;;;;;;;28.88;6.18;;;;;;;-1.43;100.00;101784.22;5085767;28;20415;-80
2022/01/06 05:23:32;;;;;;;25.98;6.00;;;;;;;-1.46;100.00;101784.09;5080893;28;20063;-80
2022/01/06 05:25:58;;;;;;;40.78;6.35;;;;;;;-1.52;100.00;101778.72;5084132;28;20035;-80
2022/01/06 05:28:24;;;;;;;17.63;5.40;;;;;;;-1.53;100.00;101782.09;5088679;28;20028;-80
2022/01/06 05:30:49;;;;;;;24.45;5.55;;;;;;;-1.57;100.00;101782.75;5084717;28;20029;-80
2022/01/06 05:33:15;;;;;;;32.70;5.53;;;;;;;-1.62;100.00;101781.72;5087502;28;20032;-80
2022/01/06 05:35:40;;;;;;;27.15;4.90;;;;;;;-1.65;100.00;101785.88;5085855;28;20074;-80
2022/01/06 05:38:05;;;;;;;33.80;5.90;;;;;;;-1.66;100.00;101790.94;5095838;28;20028;-80
2022/01/06 05:40:31;;;;;;;26.65;6.90;;;;;;;-1.71;100.00;101797.53;5094589;28;20024;-80
2022/01/06 05:42:57;;;;;;;33.53;8.90;;;;;;;-1.73;100.00;101807.72;5092683;28;20024;-80
2022/01/06 05:45:23;;;;;;;30.75;9.82;;;;;;;-1.74;100.00;101803.38;5082772;28;20469;-80
2022/01/06 05:47:49;;;;;;;40.42;7.15;;;;;;;-1.74;100.00;101811.06;5075722;28;20047;-80
2022/01/06 05:50:14;;;;;;;26.48;6.38;;;;;;;-1.80;100.00;101798.03;5074990;28;20476;-80
2022/01/06 05:52:40;;;;;;;26.15;5.97;;;;;;;-1.82;100.00;101804.75;5085717;28;20523;-80
2022/01/06 05:55:05;;;;;;;35.80;5.60;;;;;;;-1.80;100.00;101808.28;5087121;28;20044;-80
2022/01/06 05:57:31;;;;;;;29.15;5.88;;;;;;;-1.81;100.00;101816.72;5074159;28;20032;-80
2022/01/06 05:59:56;;;;;;;33.78;6.15;;;;;;;-1.80;100.00;101813.38;5083302;28;20104;-80
2022/01/06 06:02:21;;;;;;;40.05;5.88;;;;;;;-1.81;100.00;101828.63;5083975;28;20052;-80
2022/01/06 06:04:46;;;;;;;24.70;5.80;;;;;;;-1.80;100.00;101832.94;5094603;28;20016;-80
2022/01/06 06:07:12;;;;;;;31.45;5.80;;;;;;;-1.80;100.00;101825.25;5095655;28;20020;-80
2022/01/06 06:09:37;;;;;;;28.45;6.55;;;;;;;-1.83;100.00;101831.16;5093986;28;20036;-80
2022/01/06 06:12:03;;;;;;;25.52;5.30;;;;;;;-1.82;100.00;101832.88;5086167;28;20040;-80
2022/01/06 06:14:28;;;;;;;33.95;6.22;;;;;;;-1.84;100.00;101831.06;5078316;28;20028;-80
2022/01/06 06:16:54;;;;;;;27.27;5.97;;;;;;;-1.84;100.00;101825.94;5090145;28;20379;-80
2022/01/06 06:19:19;;;;;;;33.65;6.57;;;;;;;-1.87;100.00;101834.34;5074759;28;20040;-80
2022/01/06 06:21:44;;;;;;;18.00;5.65;;;;;;;-1.90;100.00;101847.00;5075654;28;20028;-80
2022/01/06 06:24:09;;;;;;;26.85;5.28;;;;;;;-1.93;100.00;101840.09;5083511;28;20039;-80
2022/01/06 06:26:35;;;;;;;29.65;6.90;;;;;;;-1.86;100.00;101843.78;5077567;28;20020;-80
2022/01/06 06:29:00;;;;;;;28.90;6.15;;;;;;;-1.82;100.00;101840.56;5088428;28;20380;-80
2022/01/06 06:31:26;;;;;;;25.15;6.15;;;;;;;-1.88;100.00;101843.72;5073604;28;20432;-80
2022/01/06 06:33:51;;;;;;;25.90;5.72;;;;;;;-1.89;100.00;101847.09;5074795;28;20028;-80
2022/01/06 06:36:17;;;;;;;26.45;5.50;;;;;;;-1.94;100.00;101848.56;5076763;28;20419;-80
2022/01/06 06:38:42;;;;;;;25.50;5.57;;;;;;;-1.95;100.00;101857.03;5088601;28;20040;-80
2022/01/06 06:41:07;;;;;;;28.67;5.40;;;;;;;-1.95;100.00;101851.94;5094358;28;20032;-80
2022/01/06 06:43:33;;;;;;;27.25;5.88;;;;;;;-1.97;100.00;101855.22;5093759;28;20055;-80
2022/01/06 06:45:58;;;;;;;34.60;6.50;;;;;;;-2.00;100.00;101857.63;5076098;28;20024;-80
2022/01/06 06:48:24;;;;;;;27.45;5.57;;;;;;;-1.97;100.00;101861.19;5092756;28;20038;-80
2022/01/06 06:50:50;;;;;;;41.63;5.95;;;;;;;-1.98;100.00;101861.16;5090981;28;20035;-80
2022/01/06 06:53:15;;;;;;;36.05;6.70;;;;;;;-1.93;100.00;101868.22;5074998;28;20024;-80
2022/01/06 06:55:40;;;;;;;25.33;6.15;;;;;;;-1.88;100.00;101868.41;5077268;28;20045;-80
2022/01/06 06:58:06;;;;;;;37.08;7.07;;;;;;;-1.84;100.00;101867.72;5087843;28;20444;-80
2022/01/06 07:00:31;;;;;;;35.22;6.72;;;;;;;-1.79;100.00;101873.06;5088596;28;20016;-80
2022/01/06 07:02:56;;;;;;;31.77;7.10;;;;;;;-1.78;100.00;101877.34;5094177;28;20028;-80
2022/01/06 07:05:22;;;;;;;34.25;7.47;;;;;;;-1.78;100.00;101867.13;5092293;28;20016;-80
2022/01/06 07:07:47;;;;;;;32.33;7.90;;;;;;;-1.74;100.00;101884.31;5079311;28;20040;-80
2022/01/06 07:10:14;;;;;;;26.00;6.93;;;;;;;-1.75;100.00;101880.03;5073932;28;20035;-80
2022/01/06 07:12:44;;;;;;;32.33;6.43;;;;;;;-1.78;100.00;101892.69;5076509;28;20020;-80
2022/01/06 07:15:11;;;;;;;34.30;6.95;;;;;;;-1.85;100.00;101883.88;5093148;28;20054;-80
2022/01/06 07:17:36;;;;;;;26.60;6.43;;;;;;;-1.88;100.00;101886.28;5079557;28;20487;-80
2022/01/06 07:20:02;;;;;;;26.77;6.57;;;;;;;-1.97;100.00;101886.75;5084494;28;20024;-80
2022/01/06 07:22:28;;;;;;;33.83;5.78;;;;;;;-1.96;100.00;101897.88;5092076;28;20071;-80
2022/01/06 07:24:53;;;;;;;24.45;6.10;;;;;;;-1.99;100.00;101910.50;5075017;28;20052;-80
2022/01/06 07:27:18;;;;;;;21.92;6.38;;;;;;;-2.05;100.00;101915.34;5080843;28;20036;-80
2022/01/06 07:29:44;;;;;;;37.00;6.97;;;;;;;-2.05;100.00;101913.66;5077231;28;20085;-80
2022/01/06 07:32:09;;;;;;;30.13;7.65;;;;;;;-2.08;100.00;101912.66;5089998;28;20032;-80
2022/01/06 07:34:34;;;;;;;24.65;6.78;;;;;;;-2.07;100.00;101914.38;5084853;28;20389;-80
2022/01/06 07:37:00;;;;;;;29.23;7.47;;;;;;;-2.10;100.00;101912.56;5078020;28;20111;-80
2022/01/06 07:39:26;;;;;;;37.17;7.03;;;;;;;-2.12;100.00;101915.06;5090019;28;20038;-80
2022/01/06 07:41:51;;;;;;;31.88;7.68;;;;;;;-2.14;100.00;101918.34;5073768;28;20020;-80
2022/01/06 07:44:17;;;;;;;27.83;7.60;;;;;;;-2.18;100.00;101914.78;5074315;28;20052;-80
2022/01/06 07:46:44;;;;;;;27.92;7.85;;;;;;;-2.16;100.00;101930.16;5093231;28;20498;-80
2022/01/06 07:49:10;;;;;;;30.08;7.88;;;;;;;-2.15;100.00;101924.28;5086910;28;20383;-80
2022/01/06 07:51:35;;;;;;;26.02;7.57;;;;;;;-2.17;100.00;101925.88;5077904;28;20016;-79
2022/01/06 07:54:00;;;;;;;34.05;8.50;;;;;;;-2.12;100.00;101920.19;5076141;28;20053;-79
2022/01/06 07:56:26;;;;;;;35.72;8.65;;;;;;;-2.12;100.00;101920.19;5086821;28;20383;-80
2022/01/06 07:58:52;;;;;;;29.85;9.57;;;;;;;-2.15;100.00;101917.47;5074929;28;20036;-79
2022/01/06 08:01:17;;;;;;;37.17;9.20;;;;;;;-2.11;100.00;101918.50;5072952;28;20547;-80
2022/01/06 08:03:43;;;;;;;30.85;9.10;;;;;;;-2.10;100.00;101919.38;5079080;28;20032;-80
2022/01/06 08:06:09;;;;;;;34.95;9.82;;;;;;;-2.10;100.00;101925.34;5093270;28;20024;-80
2022/01/06 08:08:35;;;;;;;32.67;10.27;;;;;;;-2.10;100.00;101929.59;5090438;28;20067;-81
2022/01/06 08:11:01;;;;;;;36.72;12.25;;;;;;;-2.07;100.00;101932.28;5091227;28;20028;-80
2022/01/06 08:13:26;;;;;;;37.80;12.25;;;;;;;-2.05;100.00;101934.09;5087139;28;20020;-80
2022/01/06 08:15:51;;;;;;;41.33;12.07;;;;;;;-2.04;100.00;101929.88;5086912;28;20498;-80
2022/01/06 08:18:17;;;;;;;34.90;13.02;;;;;;;-2.00;100.00;101935.16;5090990;28;20040;-80
2022/01/06 08:20:42;;;;;;;41.92;15.10;;;;;;;-1.99;100.00;101936.94;5083476;28;20027;-79
2022/01/06 08:23:07;;;;;;;41.55;13.98;;;;;;;-1.96;100.00;101936.22;5081702;28;20020;-80
2022/01/06 08:25:34;;;;;;;38.80;14.88;;;;;;;-1.98;100.00;101935.25;5073707;28;20031;-79
2022/01/06 08:27:59;;;;;;;42.25;15.60;;;;;;;-1.90;100.00;101939.91;5078271;28;20360;-80
2022/01/06 08:30:24;;;;;;;49.92;17.23;;;;;;;-1.90;100.00;101934.81;5086555;28;20020;-80
2022/01/06 08:32:50;;;;;;;52.42;18.77;;;;;;;-1.84;100.00;101941.84;5071817;28;20059;-79
2022/01/06 08:35:15;;;;;;;67.60;18.92;;;;;;;-1.83;100.00;101956.41;5072102;28;20024;-80
2022/01/06 08:37:40;;;;;;;64.20;20.63;;;;;;;-1.85;100.00;101942.66;5071293;28;20529;-80
2022/01/06 08:40:07;;;;;;;57.55;20.92;;;;;;;-1.71;100.00;101945.81;5073208;28;20033;-80
2022/01/06 08:42:32;;;;;;;53.38;21.15;;;;;;;-1.68;100.00;101941.72;5075914;28;20027;-80
2022/01/06 08:44:58;;;;;;;59.45;21.05;;;;;;;-1.64;100.00;101945.28;5083708;28;20111;-80
2022/01/06 08:47:23;;;;;;;64.15;25.08;;;;;;;-1.59;100.00;101948.94;5078382;28;20085;-80
2022/01/06 08:49:48;;;;;;;65.60;22.63;;;;;;;-1.59;100.00;101946.38;5085200;28;20034;-81
2022/01/06 08:52:14;;;;;;;75.30;25.75;;;;;;;-1.53;100.00;101953.44;5086547;28;20036;-80
2022/01/06 08:54:39;;;;;;;72.97;26.35;;;;;;;-1.42;100.00;101959.88;5080228;28;20081;-80
2022/01/06 08:57:04;;;;;;;79.30;28.17;;;;;;;-1.26;100.00;101956.31;5091587;28;20464;-80
2022/01/06 08:59:30;;;;;;;81.18;28.17;;;;;;;-1.21;100.00;101962.47;5082802;28;20027;-81
2022/01/06 09:01:55;;;;;;;81.72;30.58;;;;;;;-1.10;100.00;101958.69;5090655;28;20032;-80
2022/01/06 09:04:21;;;;;;;89.13;30.90;;;;;;;-1.05;100.00;101958.88;5072466;28;20464;-80
2022/01/06 09:06:50;;;;;;;94.93;30.77;;;;;;;-1.02;100.00;101951.31;5071853;28;20035;-80
2022/01/06 09:09:16;;;;;;;109.20;32.78;;;;;;;-0.96;100.00;101959.25;5081655;28;20107;-84
2022/01/06 09:11:42;;;;;;;99.28;33.42;;;;;;;-0.91;100.00;101964.59;5085190;28;20480;-81
2022/01/06 09:14:08;;;;;;;98.70;32.00;;;;;;;-0.85;100.00;101965.72;5073397;28;20112;-81
2022/01/06 09:16:33;;;;;;;103.68;34.50;;;;;;;-0.82;100.00;101965.84;5071274;28;20089;-81
2022/01/06 09:18:59;;;;;;;111.75;32.60;;;;;;;-0.78;100.00;101969.41;5071010;28;20067;-81
2022/01/06 09:21:24;;;;;;;98.05;33.20;;;;;;;-0.65;100.00;101970.78;5072812;28;20017;-81
2022/01/06 09:23:54;;;;;;;113.50;36.65;;;;;;;-0.57;100.00;101972.81;5078084;28;20071;-81
2022/01/06 09:26:20;;;;;;;101.60;35.60;;;;;;;-0.51;100.00;101977.31;5077012;28;20035;-81
2022/01/06 09:28:46;;;;;;;104.72;34.17;;;;;;;-0.45;100.00;101977.56;5090953;28;20024;-80
2022/01/06 09:31:11;;;;;;;122.75;35.90;;;;;;;-0.39;100.00;101977.81;5086068;28;20027;-81
2022/01/06 09:33:36;;;;;;;110.07;36.47;;;;;;;-0.26;100.00;101977.47;5074707;28;20388;-81
2022/01/06 09:36:02;;;;;;;113.00;35.13;;;;;;;-0.09;100.00;101982.38;5085047;28;20107;-81
2022/01/06 09:38:28;;;;;;;112.35;36.30;;;;;;;0.00;100.00;101987.84;5080890;28;20089;-82
2022/01/06 09:40:53;;;;;;;106.80;35.80;;;;;;;0.07;100.00;101982.13;5092073;28;20035;-81
2022/01/06 09:43:26;;;;;;;111.10;36.50;;;;;;;0.19;100.00;101987.69;5092587;28;20107;-81
2022/01/06 09:45:52;;;;;;;111.72;38.40;;;;;;;0.31;100.00;101997.56;5085714;28;20032;-81
2022/01/06 09:48:20;;;;;;;112.88;38.60;;;;;;;0.39;100.00;101995.25;5077588;28;20025;-81
2022/01/06 09:50:46;;;;;;;109.70;38.25;;;;;;;0.39;100.00;101990.13;5091446;28;20072;-81
2022/01/06 09:53:11;;;;;;;103.97;37.15;;;;;;;0.39;100.00;101992.69;5079836;28;20040;-81
2022/01/06 09:55:38;;;;;;;108.68;34.38;;;;;;;0.45;100.00;102003.19;5090168;28;20055;-82
2022/01/06 09:58:04;;;;;;;106.25;35.92;;;;;;;0.43;100.00;101987.75;5089262;28;20554;-81
2022/01/06 10:00:31;;;;;;;106.10;34.17;;;;;;;0.57;100.00;101987.38;5079878;28;20388;-80
2022/01/06 10:03:03;;;;;;;108.28;33.90;;;;;;;0.59;100.00;101991.75;5081688;28;20020;-81
2022/01/06 10:05:40;;;;;;;100.82;33.78;;;;;;;0.67;100.00;101992.88;5074792;28;20028;-81
2022/01/06 10:08:07;;;;;;;97.97;32.83;;;;;;;0.75;100.00;101992.25;5083697;28;20086;-81
2022/01/06 10:10:34;;;;;;;87.60;32.17;;;;;;;0.82;100.00;101991.69;5082320;28;20081;-82
2022/01/06 10:13:01;;;;;;;109.65;35.13;;;;;;;0.90;100.00;101988.53;5077915;28;20024;-82
2022/01/06 10:15:28;;;;;;;96.47;32.08;;;;;;;0.97;100.00;101997.31;5076501;28;20040;-82
2022/01/06 10:17:55;;;;;;;97.38;31.92;;;;;;;0.97;100.00;101988.75;5069502;28;20033;-82
2022/01/06 10:20:28;;;;;;;97.65;31.02;;;;;;;1.01;100.00;101983.75;5073810;28;20036;-82
2022/01/06 10:22:57;;;;;;;94.95;32.38;;;;;;;1.04;100.00;101983.88;5075728;28;20040;-82
2022/01/06 10:25:26;;;;;;;95.38;32.28;;;;;;;1.20;100.00;101986.94;5081260;28;20020;-82
2022/01/06 10:27:56;;;;;;;111.32;34.90;;;;;;;1.50;100.00;101992.22;5085947;28;20020;-82
2022/01/06 10:30:23;;;;;;;115.72;37.28;;;;;;;1.78;100.00;101984.53;5076432;28;20027;-81
2022/01/06 10:32:48;;;;;;;109.10;36.85;;;;;;;1.87;100.00;101969.41;5074453;28;20070;-82
2022/01/06 10:35:17;;;;;;;106.78;37.60;;;;;;;1.97;100.00;101977.41;5083412;28;20111;-82
2022/01/06 10:37:48;;;;;;;114.53;38.95;;;;;;;1.96;100.00;101980.78;5074263;28;20384;-82
2022/01/06 10:40:26;;;;;;;112.38;38.15;;;;;;;1.89;100.00;101972.00;5074857;28;20072;-82
2022/01/06 10:42:55;;;;;;;83.93;32.38;;;;;;;1.80;100.00;101977.75;5115266;28;20034;-82
2022/01/06 10:45:25;;;;;;;94.57;31.13;;;;;;;1.75;100.00;101973.28;5095777;28;20027;-81
2022/01/06 10:47:55;;;;;;;86.95;31.23;;;;;;;1.73;100.00;101980.94;5082573;28;20389;-81
2022/01/06 10:50:26;;;;;;;82.32;29.30;;;;;;;1.71;100.00;101985.19;5077663;28;20064;-83
2022/01/06 10:52:56;;;;;;;86.13;29.55;;;;;;;1.70;100.00;101974.84;5081660;28;20506;-82
2022/01/06 10:55:33;;;;;;;87.07;29.70;;;;;;;1.70;100.00;101974.84;5078418;28;20044;-82
2022/01/06 10:58:00;;;;;;;80.45;28.75;;;;;;;1.70;100.00;101974.84;5082804;28;20038;-81
2022/01/06 11:00:31;;;;;;;85.75;29.65;;;;;;;1.69;100.00;101975.69;5073042;28;20044;-81
2022/01/06 11:03:09;;;;;;;69.90;27.10;;;;;;;1.72;100.00;101979.22;5087556;28;20027;-82
2022/01/06 11:05:36;;;;;;;71.32;25.88;;;;;;;1.72;100.00;101974.06;5072913;28;20477;-81
2022/01/06 11:08:04;;;;;;;68.70;25.98;;;;;;;1.77;100.00;101975.09;5076032;28;20422;-82
2022/01/06 11:10:29;;;;;;;75.95;27.05;;;;;;;1.79;100.00;101970.84;5078129;28;20027;-82
2022/01/06 11:12:55;;;;;;;61.95;25.55;;;;;;;1.85;100.00;101967.59;5085991;28;20021;-82